Time;durP1;ratioP1;P1;durP2;ratioP2;P2;SDS_P1;SDS_P2;PMS_P1;PMS_P2;Temp;Humidity;BMP_temperature;BMP_pressure;BME280_temperature;BME280_humidity;BME280_pressure;Samples;Min_cycle;Max_cycle;Signal;HPM_P1;HPM_P2
2021/11/21 00:02:11;;;;;;;7.30;4.50;;;;;;;;;;4990649;28;20177;-81
2021/11/21 00:04:36;;;;;;;8.27;5.10;;;;;;;;;;4991491;28;20178;-80
2021/11/21 00:07:01;;;;;;;6.47;4.87;;;;;;;;;;4993519;28;20188;-86
2021/11/21 00:09:27;;;;;;;6.67;4.63;;;;;;;;;;4988102;28;20180;-81
2021/11/21 00:11:52;;;;;;;6.67;5.10;;;;;;;;;;4999389;28;20667;-85
2021/11/21 00:14:17;;;;;;;9.03;5.20;;;;;;;;;;4988581;28;20181;-82
2021/11/21 00:16:43;;;;;;;8.17;4.63;;;;;;;;;;4993149;28;20228;-82
2021/11/21 00:19:08;;;;;;;8.53;4.90;;;;;;;;;;4992895;28;20889;-82
2021/11/21 00:21:34;;;;;;;8.10;5.50;;;;;;;;;;4997374;28;20664;-81
2021/11/21 00:23:59;;;;;;;6.60;5.17;;;;;;;;;;4991174;28;20550;-80
2021/11/21 00:26:25;;;;;;;8.70;5.50;;;;;;;;;;4991304;28;20301;-81
2021/11/21 00:28:50;;;;;;;10.23;5.57;;;;;;;;;;4999629;28;20216;-81
2021/11/21 00:31:16;;;;;;;7.77;6.20;;;;;;;;;;4996159;28;20185;-78
2021/11/21 00:33:42;;;;;;;6.50;5.90;;;;;;;;;;5010019;28;20193;-82
2021/11/21 00:36:08;;;;;;;10.70;6.90;;;;;;;;;;4994101;28;20454;-82
2021/11/21 00:38:33;;;;;;;6.60;5.93;;;;;;;;;;4994811;28;20653;-84
2021/11/21 00:40:58;;;;;;;7.47;5.80;;;;;;;;;;4995242;28;20460;-81
2021/11/21 00:43:24;;;;;;;11.30;6.80;;;;;;;;;;4991771;28;20181;-81
2021/11/21 00:45:50;;;;;;;8.63;6.03;;;;;;;;;;4991567;28;20204;-81
2021/11/21 00:48:20;;;;;;;8.83;6.00;;;;;;;;;;4994859;28;20182;-79
2021/11/21 00:50:46;;;;;;;8.40;6.43;;;;;;;;;;4996513;28;20181;-75
2021/11/21 00:53:12;;;;;;;8.37;6.30;;;;;;;;;;4993435;28;20436;-76
2021/11/21 00:55:45;;;;;;;7.93;6.33;;;;;;;;;;4995676;28;20543;-78
2021/11/21 00:58:11;;;;;;;12.13;6.00;;;;;;;;;;4993945;28;20435;-79
2021/11/21 01:00:38;;;;;;;8.67;6.80;;;;;;;;;;4994920;28;21263;-82
2021/11/21 01:03:03;;;;;;;6.57;5.90;;;;;;;;;;4998509;28;20561;-81
2021/11/21 01:05:29;;;;;;;9.43;6.60;;;;;;;;;;4987861;28;20870;-81
2021/11/21 01:07:54;;;;;;;7.57;5.40;;;;;;;;;;4994767;28;20178;-80
2021/11/21 01:10:20;;;;;;;8.13;6.40;;;;;;;;;;4990573;28;20181;-79
2021/11/21 01:12:46;;;;;;;6.07;5.47;;;;;;;;;;4993056;28;20235;-80
2021/11/21 01:15:14;;;;;;;6.10;5.50;;;;;;;;;;4990983;28;20217;-81
2021/11/21 01:17:39;;;;;;;5.87;5.27;;;;;;;;;;4994822;28;20174;-80
2021/11/21 01:20:06;;;;;;;7.80;6.30;;;;;;;;;;4992023;28;20499;-80
2021/11/21 01:22:32;;;;;;;7.57;6.87;;;;;;;;;;4993332;28;20797;-79
2021/11/21 01:24:57;;;;;;;6.37;5.77;;;;;;;;;;4997025;28;21181;-80
2021/11/21 01:27:23;;;;;;;6.07;5.57;;;;;;;;;;4994546;28;20174;-84
2021/11/21 01:29:49;;;;;;;6.20;5.60;;;;;;;;;;4995185;28;20629;-82
2021/11/21 01:32:14;;;;;;;5.13;4.53;;;;;;;;;;4993045;28;20663;-78
2021/11/21 01:34:40;;;;;;;5.10;4.60;;;;;;;;;;4994646;28;20268;-83
2021/11/21 01:37:05;;;;;;;4.40;4.00;;;;;;;;;;4995542;28;20209;-83
2021/11/21 01:39:30;;;;;;;4.10;3.70;;;;;;;;;;4992672;28;20556;-83
2021/11/21 01:41:55;;;;;;;4.47;4.07;;;;;;;;;;4994112;28;20162;-80
2021/11/21 01:44:21;;;;;;;6.97;3.20;;;;;;;;;;4992154;28;20644;-84
2021/11/21 01:46:48;;;;;;;3.20;2.90;;;;;;;;;;4994996;28;20254;-85
2021/11/21 01:49:13;;;;;;;3.00;2.77;;;;;;;;;;4996876;28;20225;-79
2021/11/21 01:51:39;;;;;;;4.23;2.67;;;;;;;;;;4992005;28;20431;-84
2021/11/21 01:54:05;;;;;;;2.90;2.70;;;;;;;;;;4994672;28;20173;-84
2021/11/21 01:56:31;;;;;;;2.10;2.00;;;;;;;;;;4993673;28;20240;-83
2021/11/21 01:58:56;;;;;;;2.40;2.10;;;;;;;;;;4990530;28;20484;-83
2021/11/21 02:01:22;;;;;;;2.30;1.90;;;;;;;;;;4994469;28;20174;-83
2021/11/21 02:03:48;;;;;;;2.40;1.50;;;;;;;;;;5009930;28;20185;-84
2021/11/21 02:06:13;;;;;;;3.17;1.23;;;;;;;;;;4993886;28;20860;-81
2021/11/21 02:08:39;;;;;;;1.57;1.20;;;;;;;;;;4994984;28;20185;-84
2021/11/21 02:11:04;;;;;;;2.30;1.00;;;;;;;;;;4994026;28;20189;-82
2021/11/21 02:13:30;;;;;;;1.70;1.03;;;;;;;;;;4997634;28;20650;-81
2021/11/21 02:15:55;;;;;;;1.53;0.90;;;;;;;;;;4991434;28;20198;-83
2021/11/21 02:18:23;;;;;;;3.80;0.97;;;;;;;;;;4992988;28;20210;-82
2021/11/21 02:20:50;;;;;;;1.83;0.90;;;;;;;;;;4993912;28;20165;-80
2021/11/21 02:23:16;;;;;;;4.37;1.30;;;;;;;;;;4995064;28;20477;-81
2021/11/21 02:25:41;;;;;;;3.70;1.03;;;;;;;;;;4995356;28;20474;-82
2021/11/21 02:28:07;;;;;;;3.77;1.70;;;;;;;;;;4992130;28;20600;-81
2021/11/21 02:30:32;;;;;;;5.63;1.23;;;;;;;;;;4989691;28;20268;-81
2021/11/21 02:32:58;;;;;;;3.10;0.93;;;;;;;;;;4995561;28;20900;-81
2021/11/21 02:35:23;;;;;;;2.23;1.10;;;;;;;;;;4993043;28;20209;-80
2021/11/21 02:37:49;;;;;;;5.20;1.20;;;;;;;;;;4992831;28;20212;-82
2021/11/21 02:40:15;;;;;;;6.00;1.20;;;;;;;;;;4992986;28;20198;-81
2021/11/21 02:42:41;;;;;;;5.83;1.20;;;;;;;;;;4993531;28;21089;-82
2021/11/21 02:45:09;;;;;;;4.77;1.47;;;;;;;;;;4990359;28;20455;-83
2021/11/21 02:47:34;;;;;;;3.23;1.07;;;;;;;;;;4995853;28;20224;-82
2021/11/21 02:50:04;;;;;;;3.13;1.37;;;;;;;;;;4995029;28;20870;-81
2021/11/21 02:52:31;;;;;;;9.50;1.67;;;;;;;;;;4996389;28;20688;-82
2021/11/21 02:54:57;;;;;;;3.13;0.90;;;;;;;;;;4991525;28;20452;-81
2021/11/21 02:57:24;;;;;;;4.40;1.23;;;;;;;;;;4988907;28;20181;-82
2021/11/21 02:59:49;;;;;;;6.70;1.30;;;;;;;;;;4991062;28;20493;-81
2021/11/21 03:02:18;;;;;;;5.07;1.47;;;;;;;;;;4990745;28;20902;-81
2021/11/21 03:04:44;;;;;;;4.07;1.17;;;;;;;;;;4989590;28;20178;-81
2021/11/21 03:07:10;;;;;;;4.10;1.07;;;;;;;;;;4993409;28;20424;-81
2021/11/21 03:09:35;;;;;;;3.33;1.00;;;;;;;;;;4988184;28;20534;-81
2021/11/21 03:12:00;;;;;;;6.33;1.40;;;;;;;;;;4993264;28;20188;-84
2021/11/21 03:14:25;;;;;;;6.63;1.33;;;;;;;;;;4991428;28;20208;-81
2021/11/21 03:16:51;;;;;;;4.20;1.13;;;;;;;;;;4987046;28;20196;-81
2021/11/21 03:19:16;;;;;;;4.87;1.13;;;;;;;;;;4990630;28;20259;-81
2021/11/21 03:21:42;;;;;;;6.40;1.40;;;;;;;;;;4997742;28;20188;-82
2021/11/21 03:24:07;;;;;;;5.13;1.50;;;;;;;;;;4997480;28;20193;-82
2021/11/21 03:26:33;;;;;;;4.57;1.40;;;;;;;;;;4990997;28;20205;-81
2021/11/21 03:28:59;;;;;;;8.93;1.10;;;;;;;;;;4990605;28;20204;-82
2021/11/21 03:31:24;;;;;;;6.17;1.23;;;;;;;;;;4993459;28;20877;-80
2021/11/21 03:33:49;;;;;;;4.50;1.57;;;;;;;;;;4992578;28;20186;-82
2021/11/21 03:36:15;;;;;;;9.40;2.47;;;;;;;;;;4989962;28;20303;-81
2021/11/21 03:38:40;;;;;;;4.93;1.37;;;;;;;;;;4991153;28;20214;-81
2021/11/21 03:41:05;;;;;;;7.73;1.37;;;;;;;;;;4993757;28;20174;-81
2021/11/21 03:43:30;;;;;;;8.87;1.70;;;;;;;;;;4991990;28;20191;-81
2021/11/21 03:45:56;;;;;;;10.00;1.37;;;;;;;;;;4992649;28;20200;-81
2021/11/21 03:48:21;;;;;;;3.57;1.00;;;;;;;;;;4990007;28;20177;-81
2021/11/21 03:50:47;;;;;;;12.33;1.90;;;;;;;;;;4995027;28;20176;-82
2021/11/21 03:53:12;;;;;;;3.00;1.13;;;;;;;;;;4991013;28;20531;-82
2021/11/21 03:55:38;;;;;;;6.60;1.63;;;;;;;;;;4989705;28;20288;-81
2021/11/21 03:58:03;;;;;;;5.80;1.27;;;;;;;;;;4991764;28;20182;-81
2021/11/21 04:00:28;;;;;;;2.97;1.33;;;;;;;;;;4994318;28;20193;-81
2021/11/21 04:02:56;;;;;;;5.47;1.07;;;;;;;;;;4993212;28;20327;-82
2021/11/21 04:05:23;;;;;;;10.67;1.63;;;;;;;;;;4995083;28;20200;-81
2021/11/21 04:07:48;;;;;;;3.87;1.00;;;;;;;;;;4994714;28;20980;-81
2021/11/21 04:10:14;;;;;;;2.97;0.90;;;;;;;;;;4998253;28;20437;-81
2021/11/21 04:12:40;;;;;;;8.40;1.23;;;;;;;;;;5001890;28;20302;-81
2021/11/21 04:15:05;;;;;;;4.43;0.90;;;;;;;;;;4995682;28;20603;-81
2021/11/21 04:17:32;;;;;;;3.60;0.93;;;;;;;;;;4993695;28;20196;-82
2021/11/21 04:19:57;;;;;;;3.07;1.10;;;;;;;;;;4994388;28;20201;-81
2021/11/21 04:22:22;;;;;;;5.73;0.97;;;;;;;;;;4997201;28;20814;-81
2021/11/21 04:24:48;;;;;;;5.23;1.20;;;;;;;;;;4996301;28;20170;-80
2021/11/21 04:27:13;;;;;;;7.13;1.40;;;;;;;;;;4998185;28;20232;-81
2021/11/21 04:29:38;;;;;;;5.70;1.70;;;;;;;;;;4998396;28;20227;-81
2021/11/21 04:32:05;;;;;;;3.13;0.90;;;;;;;;;;4994786;28;20193;-81
2021/11/21 04:34:30;;;;;;;7.17;1.73;;;;;;;;;;4993698;28;20204;-81
2021/11/21 04:36:58;;;;;;;4.87;1.70;;;;;;;;;;4995233;28;20459;-80
2021/11/21 04:39:23;;;;;;;6.97;1.50;;;;;;;;;;4993698;28;20902;-81
2021/11/21 04:41:49;;;;;;;3.40;0.97;;;;;;;;;;4994453;28;20435;-81
2021/11/21 04:44:14;;;;;;;3.03;1.23;;;;;;;;;;4997511;28;20178;-81
2021/11/21 04:46:40;;;;;;;3.57;1.20;;;;;;;;;;4992926;28;20216;-80
2021/11/21 04:49:06;;;;;;;6.03;2.07;;;;;;;;;;4990729;28;20178;-80
2021/11/21 04:51:31;;;;;;;6.70;1.47;;;;;;;;;;4996199;28;20706;-81
2021/11/21 04:53:57;;;;;;;9.10;1.70;;;;;;;;;;4998412;28;20518;-81
2021/11/21 04:56:23;;;;;;;7.77;1.70;;;;;;;;;;4994741;28;20232;-81
2021/11/21 04:58:48;;;;;;;7.07;1.57;;;;;;;;;;4987428;28;20292;-81
2021/11/21 05:01:14;;;;;;;8.73;1.60;;;;;;;;;;4996237;28;20524;-81
2021/11/21 05:03:39;;;;;;;10.50;1.73;;;;;;;;;;4992277;28;20597;-81
2021/11/21 05:06:04;;;;;;;10.50;1.83;;;;;;;;;;4990682;28;20193;-80
2021/11/21 05:08:30;;;;;;;8.90;2.07;;;;;;;;;;4994954;28;20185;-80
2021/11/21 05:10:55;;;;;;;8.33;1.90;;;;;;;;;;4990109;28;20177;-81
2021/11/21 05:13:20;;;;;;;9.67;2.30;;;;;;;;;;4991852;28;20177;-82
2021/11/21 05:15:46;;;;;;;12.07;2.27;;;;;;;;;;4991872;28;20230;-80
2021/11/21 05:18:11;;;;;;;9.33;2.10;;;;;;;;;;4996565;28;20244;-83
2021/11/21 05:20:36;;;;;;;16.53;3.00;;;;;;;;;;4993786;28;26714;-82
2021/11/21 05:23:02;;;;;;;11.93;2.30;;;;;;;;;;4992152;28;20169;-81
2021/11/21 05:25:27;;;;;;;5.60;2.33;;;;;;;;;;4992978;28;20201;-82
2021/11/21 05:27:52;;;;;;;13.83;2.40;;;;;;;;;;4994983;28;20224;-79
2021/11/21 05:30:19;;;;;;;15.40;2.60;;;;;;;;;;4993913;28;20181;-78
2021/11/21 05:32:45;;;;;;;6.67;2.40;;;;;;;;;;4994221;28;20682;-78
2021/11/21 05:35:11;;;;;;;9.23;2.13;;;;;;;;;;4988848;28;20510;-79
2021/11/21 05:37:36;;;;;;;8.47;2.57;;;;;;;;;;4991461;28;20185;-79
2021/11/21 05:40:06;;;;;;;11.23;2.60;;;;;;;;;;4991533;28;20510;-77
2021/11/21 05:42:31;;;;;;;13.63;3.13;;;;;;;;;;4992807;28;20185;-77
2021/11/21 05:44:57;;;;;;;11.20;2.23;;;;;;;;;;4995422;28;20521;-81
2021/11/21 05:47:22;;;;;;;7.00;1.90;;;;;;;;;;4994640;28;20263;-83
2021/11/21 05:49:47;;;;;;;16.53;2.63;;;;;;;;;;4993676;28;20630;-82
2021/11/21 05:52:13;;;;;;;9.50;1.80;;;;;;;;;;5001140;28;20185;-80
2021/11/21 05:54:38;;;;;;;11.37;2.07;;;;;;;;;;4996187;28;20188;-83
2021/11/21 05:57:04;;;;;;;11.07;1.80;;;;;;;;;;4995047;28;20196;-83
2021/11/21 05:59:29;;;;;;;8.43;2.10;;;;;;;;;;4992932;28;20220;-82
2021/11/21 06:01:54;;;;;;;12.47;2.70;;;;;;;;;;4991356;28;20177;-82
2021/11/21 06:04:20;;;;;;;7.70;1.70;;;;;;;;;;4993419;28;20173;-81
2021/11/21 06:06:45;;;;;;;9.03;2.37;;;;;;;;;;4995269;28;20687;-81
2021/11/21 06:09:10;;;;;;;10.07;2.13;;;;;;;;;;4991059;28;20240;-82
2021/11/21 06:11:36;;;;;;;10.73;2.57;;;;;;;;;;4990296;28;20267;-82
2021/11/21 06:14:01;;;;;;;10.17;2.20;;;;;;;;;;4991686;28;20190;-81
2021/11/21 06:16:26;;;;;;;11.87;2.17;;;;;;;;;;4994773;28;20339;-82
2021/11/21 06:18:51;;;;;;;6.10;1.97;;;;;;;;;;4996350;28;20190;-82
2021/11/21 06:21:17;;;;;;;6.93;1.77;;;;;;;;;;4994601;28;20216;-80
2021/11/21 06:23:42;;;;;;;8.63;2.03;;;;;;;;;;4990492;28;20233;-84
2021/11/21 06:26:08;;;;;;;11.30;2.00;;;;;;;;;;4990859;28;20216;-81
2021/11/21 06:28:33;;;;;;;8.37;1.93;;;;;;;;;;4990965;28;20275;-81
2021/11/21 06:30:58;;;;;;;9.47;1.77;;;;;;;;;;4991293;28;20254;-81
2021/11/21 06:33:24;;;;;;;5.53;1.60;;;;;;;;;;4997027;28;20188;-81
2021/11/21 06:35:50;;;;;;;8.33;1.90;;;;;;;;;;4994974;28;20194;-79
2021/11/21 06:38:15;;;;;;;9.07;1.57;;;;;;;;;;4993375;28;20207;-79
2021/11/21 06:40:41;;;;;;;8.60;1.70;;;;;;;;;;4994096;28;20922;-80
2021/11/21 06:43:06;;;;;;;6.93;2.10;;;;;;;;;;4997080;28;20250;-80
2021/11/21 06:45:32;;;;;;;7.67;1.70;;;;;;;;;;4989620;28;21827;-79
2021/11/21 06:47:57;;;;;;;10.60;1.90;;;;;;;;;;4997081;28;20177;-80
2021/11/21 06:50:22;;;;;;;7.43;1.90;;;;;;;;;;4993575;28;20966;-80
2021/11/21 06:52:48;;;;;;;8.23;1.80;;;;;;;;;;4993532;28;20177;-82
2021/11/21 06:55:14;;;;;;;4.20;1.80;;;;;;;;;;4992107;28;20205;-82
2021/11/21 06:57:39;;;;;;;7.07;1.83;;;;;;;;;;4989367;28;20192;-81
2021/11/21 07:00:09;;;;;;;7.47;1.50;;;;;;;;;;4990695;28;20465;-80
2021/11/21 07:02:34;;;;;;;7.50;1.97;;;;;;;;;;5010362;28;20169;-81
2021/11/21 07:05:00;;;;;;;6.30;1.80;;;;;;;;;;4992108;28;20456;-79
2021/11/21 07:07:25;;;;;;;5.13;1.23;;;;;;;;;;4989998;28;20174;-81
2021/11/21 07:09:51;;;;;;;6.90;1.60;;;;;;;;;;4988648;28;20173;-82
2021/11/21 07:12:16;;;;;;;6.77;1.50;;;;;;;;;;4992887;28;20177;-82
2021/11/21 07:14:42;;;;;;;6.13;1.43;;;;;;;;;;4991609;28;20213;-84
2021/11/21 07:17:07;;;;;;;5.60;1.40;;;;;;;;;;4995913;28;20265;-83
2021/11/21 07:19:32;;;;;;;6.60;1.70;;;;;;;;;;4988272;28;20356;-81
2021/11/21 07:21:58;;;;;;;5.47;1.37;;;;;;;;;;4991064;28;20182;-81
2021/11/21 07:24:24;;;;;;;6.60;1.60;;;;;;;;;;4991085;28;20185;-81
2021/11/21 07:26:49;;;;;;;12.30;1.93;;;;;;;;;;4997135;28;20220;-82
2021/11/21 07:29:15;;;;;;;6.23;1.73;;;;;;;;;;4993241;28;20177;-81
2021/11/21 07:31:41;;;;;;;6.63;1.80;;;;;;;;;;4990354;28;20173;-80
2021/11/21 07:34:06;;;;;;;4.50;1.53;;;;;;;;;;4988148;28;20937;-80
2021/11/21 07:36:31;;;;;;;6.27;1.80;;;;;;;;;;4993852;28;20200;-80
2021/11/21 07:38:57;;;;;;;4.97;1.80;;;;;;;;;;4993784;28;20208;-82
2021/11/21 07:41:22;;;;;;;5.40;1.60;;;;;;;;;;4993736;28;20177;-82
2021/11/21 07:43:47;;;;;;;6.40;2.00;;;;;;;;;;4998673;28;20185;-81
2021/11/21 07:46:13;;;;;;;7.83;1.77;;;;;;;;;;4994249;28;20204;-83
2021/11/21 07:48:38;;;;;;;2.97;1.50;;;;;;;;;;4994511;28;20181;-82
2021/11/21 07:51:04;;;;;;;6.13;1.90;;;;;;;;;;4991814;28;20551;-82
2021/11/21 07:53:29;;;;;;;10.53;2.67;;;;;;;;;;4995077;28;20185;-82
2021/11/21 07:55:55;;;;;;;6.67;2.40;;;;;;;;;;4990156;28;20455;-83
2021/11/21 07:58:20;;;;;;;10.33;2.70;;;;;;;;;;4990393;28;20182;-85
2021/11/21 08:00:46;;;;;;;5.83;2.07;;;;;;;;;;4996783;28;20475;-81
2021/11/21 08:03:12;;;;;;;7.47;2.27;;;;;;;;;;4992829;28;20181;-82
2021/11/21 08:05:37;;;;;;;9.13;2.17;;;;;;;;;;4992289;28;20492;-82
2021/11/21 08:08:03;;;;;;;7.10;1.80;;;;;;;;;;4988862;28;20184;-80
2021/11/21 08:10:28;;;;;;;8.87;2.20;;;;;;;;;;4993094;28;20644;-80
2021/11/21 08:12:54;;;;;;;4.63;1.70;;;;;;;;;;4990215;28;20182;-80
2021/11/21 08:15:19;;;;;;;14.20;3.10;;;;;;;;;;4989340;28;20204;-81
2021/11/21 08:17:45;;;;;;;7.43;2.10;;;;;;;;;;4984565;28;20280;-81
2021/11/21 08:20:10;;;;;;;7.30;1.97;;;;;;;;;;4986904;28;20348;-82
2021/11/21 08:22:36;;;;;;;5.03;1.47;;;;;;;;;;4990114;28;20313;-80
2021/11/21 08:25:02;;;;;;;9.30;2.00;;;;;;;;;;4992360;28;20669;-80
2021/11/21 08:27:27;;;;;;;8.77;1.80;;;;;;;;;;5000578;28;20428;-82
2021/11/21 08:29:53;;;;;;;7.90;2.03;;;;;;;;;;4995526;28;20182;-81
2021/11/21 08:32:19;;;;;;;7.00;1.93;;;;;;;;;;5001520;28;20215;-79
2021/11/21 08:34:45;;;;;;;3.80;1.30;;;;;;;;;;4985908;28;21146;-80
2021/11/21 08:37:10;;;;;;;4.47;1.60;;;;;;;;;;4988530;28;20703;-83
2021/11/21 08:39:36;;;;;;;7.83;2.10;;;;;;;;;;4990396;28;20206;-78
2021/11/21 08:42:01;;;;;;;6.03;1.60;;;;;;;;;;4989329;28;20267;-81
2021/11/21 08:44:26;;;;;;;5.80;1.60;;;;;;;;;;4991229;28;20166;-78
2021/11/21 08:46:52;;;;;;;6.37;1.90;;;;;;;;;;4986766;28;20591;-81
2021/11/21 08:49:17;;;;;;;8.97;1.90;;;;;;;;;;4998818;28;20192;-79
2021/11/21 08:51:43;;;;;;;7.73;3.27;;;;;;;;;;5008231;28;20181;-77
2021/11/21 08:54:09;;;;;;;9.70;2.20;;;;;;;;;;4989128;28;20648;-79
2021/11/21 08:56:34;;;;;;;10.43;1.87;;;;;;;;;;4989591;28;20495;-76
2021/11/21 08:59:00;;;;;;;6.60;1.60;;;;;;;;;;4992943;28;20262;-77
2021/11/21 09:01:25;;;;;;;18.37;1.83;;;;;;;;;;4993440;28;20198;-79
2021/11/21 09:03:51;;;;;;;9.37;2.63;;;;;;;;;;4993280;28;20252;-78
2021/11/21 09:06:16;;;;;;;10.27;2.50;;;;;;;;;;4989041;28;20194;-78
2021/11/21 09:08:41;;;;;;;7.47;2.00;;;;;;;;;;4991387;28;20640;-78
2021/11/21 09:11:06;;;;;;;7.73;1.60;;;;;;;;;;4993560;28;20266;-79
2021/11/21 09:13:32;;;;;;;6.40;1.80;;;;;;;;;;4993854;28;20180;-77
2021/11/21 09:15:58;;;;;;;4.87;1.30;;;;;;;;;;4989874;28;20216;-78
2021/11/21 09:18:25;;;;;;;7.07;1.73;;;;;;;;;;4983832;28;20205;-79
2021/11/21 09:20:54;;;;;;;7.67;1.67;;;;;;;;;;4990511;28;20499;-78
2021/11/21 09:23:20;;;;;;;4.57;2.10;;;;;;;;;;4990302;28;20437;-76
2021/11/21 09:25:45;;;;;;;5.27;1.27;;;;;;;;;;4989996;28;20507;-79
2021/11/21 09:28:11;;;;;;;6.47;1.73;;;;;;;;;;4994424;28;20224;-80
2021/11/21 09:30:36;;;;;;;6.00;1.47;;;;;;;;;;4989722;28;20185;-81
2021/11/21 09:33:01;;;;;;;3.87;1.30;;;;;;;;;;4993497;28;20568;-80
2021/11/21 09:35:27;;;;;;;4.83;1.70;;;;;;;;;;4991485;28;20225;-80
2021/11/21 09:37:52;;;;;;;4.80;1.73;;;;;;;;;;4989478;28;20211;-82
2021/11/21 09:40:18;;;;;;;4.60;1.37;;;;;;;;;;4990804;28;20333;-81
2021/11/21 09:42:43;;;;;;;7.83;1.33;;;;;;;;;;4990711;28;20177;-82
2021/11/21 09:45:10;;;;;;;4.17;1.53;;;;;;;;;;4991414;28;20201;-81
2021/11/21 09:47:35;;;;;;;5.80;2.30;;;;;;;;;;4990543;28;20189;-80
2021/11/21 09:50:02;;;;;;;7.93;1.50;;;;;;;;;;4992011;28;20436;-82
2021/11/21 09:52:28;;;;;;;5.63;1.90;;;;;;;;;;4989546;28;20177;-81
2021/11/21 09:54:53;;;;;;;6.50;1.80;;;;;;;;;;4993117;28;20571;-79
2021/11/21 09:57:18;;;;;;;6.80;1.60;;;;;;;;;;4993535;28;20261;-83
2021/11/21 09:59:56;;;;;;;5.07;1.40;;;;;;;;;;4998378;28;20263;-76
2021/11/21 10:02:29;;;;;;;6.57;2.07;;;;;;;;;;4996533;28;20667;-80
2021/11/21 10:04:55;;;;;;;6.80;2.03;;;;;;;;;;4994780;28;20725;-77
2021/11/21 10:07:40;;;;;;;7.20;2.17;;;;;;;;;;4994942;28;20907;-76
2021/11/21 10:10:10;;;;;;;10.23;1.53;;;;;;;;;;4992943;28;20185;-78
2021/11/21 10:12:37;;;;;;;6.17;2.00;;;;;;;;;;4991354;28;20508;-76
2021/11/21 10:15:07;;;;;;;9.20;1.97;;;;;;;;;;4996108;28;20459;-77
2021/11/21 10:17:33;;;;;;;15.70;1.90;;;;;;;;;;4995095;28;20507;-79
2021/11/21 10:20:13;;;;;;;8.17;2.23;;;;;;;;;;4994345;28;20455;-80
2021/11/21 10:22:57;;;;;;;8.30;1.90;;;;;;;;;;4993176;28;20432;-79
2021/11/21 10:25:31;;;;;;;5.80;1.40;;;;;;;;;;4991986;28;20467;-80
2021/11/21 10:28:06;;;;;;;9.03;1.70;;;;;;;;;;4998844;28;20501;-80
2021/11/21 10:30:32;;;;;;;8.27;1.40;;;;;;;;;;4999756;28;20427;-80
2021/11/21 10:33:04;;;;;;;5.83;1.20;;;;;;;;;;4997084;28;20945;-81
2021/11/21 10:35:30;;;;;;;6.67;1.60;;;;;;;;;;4993309;28;20228;-81
2021/11/21 10:37:59;;;;;;;6.53;1.50;;;;;;;;;;4994942;28;20925;-78
2021/11/21 10:40:25;;;;;;;5.67;1.90;;;;;;;;;;4993241;28;20312;-80
2021/11/21 10:42:51;;;;;;;6.83;1.40;;;;;;;;;;4994561;28;20507;-78
2021/11/21 10:45:22;;;;;;;5.43;2.00;;;;;;;;;;4991868;28;20204;-78
2021/11/21 10:47:49;;;;;;;6.57;1.80;;;;;;;;;;4996755;28;20432;-82
2021/11/21 10:50:34;;;;;;;3.87;1.50;;;;;;;;;;4992889;28;20809;-81
2021/11/21 10:53:02;;;;;;;4.83;1.50;;;;;;;;;;5002060;28;20431;-81
2021/11/21 10:55:27;;;;;;;9.07;1.57;;;;;;;;;;4993279;28;20462;-81
2021/11/21 10:57:53;;;;;;;1.97;1.23;;;;;;;;;;4990767;28;20463;-82
2021/11/21 11:00:20;;;;;;;4.37;1.50;;;;;;;;;;4993924;28;20589;-81
2021/11/21 11:02:46;;;;;;;5.13;1.13;;;;;;;;;;5000957;28;20176;-80
2021/11/21 11:05:12;;;;;;;3.63;1.50;;;;;;;;;;4994039;28;20966;-79
2021/11/21 11:07:40;;;;;;;2.80;1.47;;;;;;;;;;4998790;28;20176;-82
2021/11/21 11:10:07;;;;;;;9.07;1.93;;;;;;;;;;4995200;28;20433;-80
2021/11/21 11:12:33;;;;;;;4.50;1.57;;;;;;;;;;4995249;28;20430;-79
2021/11/21 11:14:58;;;;;;;10.43;1.37;;;;;;;;;;4995650;28;20463;-80
2021/11/21 11:17:25;;;;;;;5.10;1.77;;;;;;;;;;4986713;28;20616;-81
2021/11/21 11:19:54;;;;;;;9.50;1.47;;;;;;;;;;4992054;28;20197;-79
2021/11/21 11:22:19;;;;;;;4.63;1.17;;;;;;;;;;4994862;28;20863;-79
2021/11/21 11:24:44;;;;;;;4.23;1.30;;;;;;;;;;4991815;28;20429;-79
2021/11/21 11:27:16;;;;;;;3.27;1.57;;;;;;;;;;4993883;28;20259;-79
2021/11/21 11:29:47;;;;;;;5.27;1.30;;;;;;;;;;5009270;28;20189;-77
2021/11/21 11:32:18;;;;;;;1.67;0.70;;;;;;;;;;4993232;28;20441;-80
2021/11/21 11:34:43;;;;;;;4.13;0.87;;;;;;;;;;4992335;28;20432;-79
2021/11/21 11:37:13;;;;;;;1.90;0.80;;;;;;;;;;5003634;28;20483;-80
2021/11/21 11:39:40;;;;;;;3.10;0.90;;;;;;;;;;4991249;28;20200;-80
2021/11/21 11:42:34;;;;;;;3.00;1.10;;;;;;;;;;4984189;28;20952;-80
2021/11/21 11:45:00;;;;;;;3.33;1.17;;;;;;;;;;4969242;28;20452;-83
2021/11/21 11:47:27;;;;;;;2.67;1.10;;;;;;;;;;4993563;28;20847;-79
2021/11/21 11:49:52;;;;;;;4.13;0.87;;;;;;;;;;4995704;28;20185;-80
2021/11/21 11:52:37;;;;;;;3.83;0.97;;;;;;;;;;4992361;28;20519;-81
2021/11/21 11:55:09;;;;;;;4.00;1.00;;;;;;;;;;4995080;28;20219;-85
2021/11/21 11:57:34;;;;;;;4.83;1.33;;;;;;;;;;4994107;28;20823;-79
2021/11/21 12:00:20;;;;;;;3.87;1.23;;;;;;;;;;4993130;28;20472;-77
2021/11/21 12:02:46;;;;;;;3.83;1.17;;;;;;;;;;4992080;28;20189;-77
2021/11/21 12:05:11;;;;;;;5.40;1.40;;;;;;;;;;4995814;28;20451;-77
2021/11/21 12:07:41;;;;;;;3.37;1.10;;;;;;;;;;4986151;28;20919;-74
2021/11/21 12:10:12;;;;;;;8.90;1.50;;;;;;;;;;5007422;28;20191;-76
2021/11/21 12:12:58;;;;;;;4.10;1.20;;;;;;;;;;4994603;28;20806;-79
2021/11/21 12:15:31;;;;;;;4.00;1.10;;;;;;;;;;4998803;28;20452;-75
2021/11/21 12:17:57;;;;;;;4.90;0.97;;;;;;;;;;4991205;28;20958;-78
2021/11/21 12:20:41;;;;;;;4.80;0.80;;;;;;;;;;4990756;28;20471;-76
2021/11/21 12:23:07;;;;;;;5.63;1.57;;;;;;;;;;5000367;28;20440;-77
2021/11/21 12:25:32;;;;;;;4.00;1.10;;;;;;;;;;4998164;28;21095;-78
2021/11/21 12:27:58;;;;;;;7.80;1.90;;;;;;;;;;4996603;28;20192;-76
2021/11/21 12:30:28;;;;;;;5.33;1.30;;;;;;;;;;4990660;28;20282;-77
2021/11/21 12:32:56;;;;;;;2.87;1.43;;;;;;;;;;4991611;28;20459;-79
2021/11/21 12:35:35;;;;;;;5.40;1.10;;;;;;;;;;4995936;28;20587;-80
2021/11/21 12:38:02;;;;;;;3.33;1.37;;;;;;;;;;4994341;28;20423;-81
2021/11/21 12:40:43;;;;;;;4.47;1.40;;;;;;;;;;5000588;28;20460;-83
2021/11/21 12:43:10;;;;;;;4.93;1.20;;;;;;;;;;4998698;28;20464;-82
2021/11/21 12:45:37;;;;;;;5.80;1.43;;;;;;;;;;5001551;28;20942;-84
2021/11/21 12:48:03;;;;;;;3.77;1.33;;;;;;;;;;5003607;28;20429;-84
2021/11/21 12:50:31;;;;;;;2.00;1.10;;;;;;;;;;5005510;28;20432;-83
2021/11/21 12:52:57;;;;;;;6.73;1.60;;;;;;;;;;4989413;28;20440;-81
2021/11/21 12:55:23;;;;;;;7.57;1.40;;;;;;;;;;4996525;28;20479;-82
2021/11/21 12:57:49;;;;;;;4.90;1.30;;;;;;;;;;4994515;28;20445;-82
2021/11/21 13:00:15;;;;;;;4.03;1.33;;;;;;;;;;4994765;28;20878;-85
2021/11/21 13:02:40;;;;;;;3.70;1.20;;;;;;;;;;4994777;28;20173;-80
2021/11/21 13:05:06;;;;;;;8.53;1.93;;;;;;;;;;4993411;28;20248;-84
2021/11/21 13:07:35;;;;;;;7.10;1.40;;;;;;;;;;4997247;28;20788;-82
2021/11/21 13:10:03;;;;;;;3.80;1.10;;;;;;;;;;4998850;28;20248;-82
2021/11/21 13:12:33;;;;;;;5.67;1.50;;;;;;;;;;5011252;28;20946;-81
2021/11/21 13:14:59;;;;;;;5.70;1.63;;;;;;;;;;4998429;28;21009;-82
2021/11/21 13:17:25;;;;;;;3.50;1.50;;;;;;;;;;4989643;28;20447;-83
2021/11/21 13:20:01;;;;;;;8.53;2.30;;;;;;;;;;4992141;28;20468;-82
2021/11/21 13:23:05;;;;;;;7.13;1.50;;;;;;;;;;4997811;28;20177;-82
2021/11/21 13:25:33;;;;;;;6.27;1.63;;;;;;;;;;4924901;29;20482;-81
2021/11/21 13:28:17;;;;;;;8.13;1.90;;;;;;;;;;4927525;29;20431;-80
2021/11/21 13:30:42;;;;;;;9.67;1.97;;;;;;;;;;4966809;28;20465;-81
2021/11/21 13:33:15;;;;;;;7.93;2.00;;;;;;;;;;4993621;28;20484;-78
2021/11/21 13:35:41;;;;;;;8.30;2.20;;;;;;;;;;5004995;28;20198;-77
2021/11/21 13:38:06;;;;;;;8.83;2.30;;;;;;;;;;4993755;28;20436;-78
2021/11/21 13:40:32;;;;;;;5.60;1.83;;;;;;;;;;4990140;28;20839;-73
2021/11/21 13:43:04;;;;;;;12.73;2.37;;;;;;;;;;4995139;28;20178;-80
2021/11/21 13:45:29;;;;;;;6.93;1.30;;;;;;;;;;4993164;28;20292;-84
2021/11/21 13:47:55;;;;;;;5.33;1.33;;;;;;;;;;4996164;28;20567;-81
2021/11/21 13:50:28;;;;;;;6.83;1.80;;;;;;;;;;5001146;28;20235;-83
2021/11/21 13:52:54;;;;;;;6.83;2.00;;;;;;;;;;4997029;28;20185;-75
2021/11/21 13:55:19;;;;;;;5.80;1.80;;;;;;;;;;4991831;28;20449;-79
2021/11/21 13:57:46;;;;;;;3.40;1.40;;;;;;;;;;4990783;28;20189;-81
2021/11/21 14:00:25;;;;;;;7.23;1.70;;;;;;;;;;4995952;28;20262;-77
2021/11/21 14:02:55;;;;;;;9.00;2.23;;;;;;;;;;4998846;28;20423;-76
2021/11/21 14:05:26;;;;;;;5.10;1.97;;;;;;;;;;4995721;28;20582;-82
2021/11/21 14:08:01;;;;;;;10.30;2.07;;;;;;;;;;4996140;28;20432;-76
2021/11/21 14:10:30;;;;;;;8.40;2.00;;;;;;;;;;4995075;28;20440;-72
2021/11/21 14:13:13;;;;;;;7.43;2.43;;;;;;;;;;4991899;28;20937;-76
2021/11/21 14:15:38;;;;;;;13.53;2.70;;;;;;;;;;4994298;28;20482;-79
2021/11/21 14:18:04;;;;;;;9.07;2.00;;;;;;;;;;4997458;28;20440;-75
2021/11/21 14:20:31;;;;;;;12.73;2.03;;;;;;;;;;4993211;28;20472;-77
2021/11/21 14:23:03;;;;;;;6.67;1.37;;;;;;;;;;4989969;28;20296;-75
2021/11/21 14:25:34;;;;;;;4.37;1.47;;;;;;;;;;4993942;28;20471;-74
2021/11/21 14:28:06;;;;;;;9.47;2.20;;;;;;;;;;4993435;28;20429;-71
2021/11/21 14:30:32;;;;;;;4.50;1.33;;;;;;;;;;4988767;28;21022;-74
2021/11/21 14:33:12;;;;;;;7.57;1.83;;;;;;;;;;4989405;28;20440;-78
2021/11/21 14:35:45;;;;;;;8.33;1.73;;;;;;;;;;4989253;28;20463;-75
2021/11/21 14:38:13;;;;;;;6.00;1.60;;;;;;;;;;4997178;28;20439;-77
2021/11/21 14:40:38;;;;;;;8.10;2.50;;;;;;;;;;4994033;28;20564;-72